createdAt,value
2019-03-30T00:00:50.824Z,99.58
2019-03-30T00:06:15.618Z,99.67
2019-03-30T00:11:40.612Z,99.66
2019-03-30T00:17:05.411Z,99.77
2019-03-30T00:22:29.833Z,99.74
2019-03-30T00:27:54.062Z,99.83
2019-03-30T00:33:18.235Z,99.96
2019-03-30T00:38:43.127Z,100.00
2019-03-30T00:44:07.705Z,100.00
2019-03-30T00:49:32.829Z,100.00
2019-03-30T00:54:57.728Z,100.00
2019-03-30T01:00:23.366Z,100.00
2019-03-30T01:05:47.549Z,100.00
2019-03-30T01:11:12.522Z,100.00
2019-03-30T01:16:37.541Z,100.00
2019-03-30T01:22:02.133Z,100.00
2019-03-30T01:27:26.601Z,100.00
2019-03-30T01:32:51.532Z,100.00
2019-03-30T01:38:17.847Z,100.00
2019-03-30T01:43:41.965Z,100.00
2019-03-30T01:49:07.254Z,100.00
2019-03-30T01:54:31.905Z,100.00
2019-03-30T01:59:57.237Z,100.00
2019-03-30T02:05:22.093Z,100.00
2019-03-30T02:10:47.507Z,100.00
2019-03-30T02:16:13.036Z,100.00
2019-03-30T02:21:38.059Z,100.00
2019-03-30T02:27:02.931Z,100.00
2019-03-30T02:32:28.088Z,100.00
2019-03-30T02:37:52.839Z,100.00
2019-03-30T02:43:17.480Z,100.00
2019-03-30T02:48:41.654Z,100.00
2019-03-30T02:54:06.609Z,100.00
2019-03-30T02:59:31.497Z,100.00
2019-03-30T03:04:56.969Z,100.00
2019-03-30T03:10:22.273Z,100.00
2019-03-30T03:15:47.049Z,100.00
2019-03-30T03:21:12.043Z,100.00
2019-03-30T03:26:37.270Z,100.00
2019-03-30T03:32:02.340Z,100.00
2019-03-30T03:37:43.416Z,100.00
2019-03-30T03:42:53.721Z,100.00
2019-03-30T03:48:18.331Z,100.00
2019-03-30T03:53:43.560Z,100.00
2019-03-30T03:59:08.173Z,100.00
2019-03-30T04:04:36.105Z,100.00
2019-03-30T04:10:03.525Z,100.00
2019-03-30T04:15:28.780Z,100.00
2019-03-30T04:20:53.741Z,100.00
2019-03-30T04:26:18.666Z,100.00
2019-03-30T04:31:43.855Z,100.00
2019-03-30T04:37:08.249Z,100.00
2019-03-30T04:42:33.765Z,100.00
2019-03-30T04:47:59.230Z,100.00
2019-03-30T04:53:24.179Z,100.00
2019-03-30T04:58:48.618Z,100.00
2019-03-30T05:04:13.167Z,100.00
2019-03-30T05:09:38.766Z,100.00
2019-03-30T05:15:04.091Z,100.00
2019-03-30T05:20:28.891Z,100.00
2019-03-30T05:25:53.658Z,100.00
2019-03-30T05:31:19.006Z,100.00
2019-03-30T05:36:43.406Z,100.00
2019-03-30T05:42:07.530Z,100.00
2019-03-30T05:47:31.766Z,100.00
2019-03-30T05:52:56.412Z,100.00
2019-03-30T05:58:20.676Z,100.00
2019-03-30T06:03:45.320Z,100.00
2019-03-30T06:09:09.544Z,100.00
2019-03-30T06:14:33.772Z,96.63
2019-03-30T06:19:58.130Z,93.33
2019-03-30T06:25:22.678Z,88.84
2019-03-30T06:30:46.919Z,82.85
2019-03-30T06:36:12.374Z,78.93
2019-03-30T06:41:37.053Z,77.55
2019-03-30T06:47:01.546Z,79.78
2019-03-30T06:52:25.824Z,80.07
2019-03-30T06:57:51.064Z,76.96
2019-03-30T07:03:16.672Z,72.03
2019-03-30T07:08:44.481Z,69.56
2019-03-30T07:14:11.758Z,70.62
2019-03-30T07:19:39.607Z,67.69
2019-03-30T07:25:04.930Z,67.64
2019-03-30T07:30:31.573Z,68.29
2019-03-30T07:35:57.997Z,67.53
2019-03-30T07:41:22.340Z,63.87
2019-03-30T07:46:46.441Z,63.74
2019-03-30T07:52:11.617Z,65.38
2019-03-30T07:57:36.945Z,62.80
2019-03-30T08:03:02.423Z,60.56
2019-03-30T08:08:26.980Z,59.46
2019-03-30T08:13:51.167Z,56.72
2019-03-30T08:19:16.135Z,57.46
2019-03-30T08:24:41.494Z,56.79
2019-03-30T08:30:06.654Z,54.39
2019-03-30T08:35:31.010Z,56.82
2019-03-30T08:40:56.289Z,55.00
2019-03-30T08:46:21.704Z,55.39
2019-03-30T08:51:46.534Z,53.51
2019-03-30T08:57:11.840Z,50.90
2019-03-30T09:02:36.962Z,50.72
2019-03-30T09:08:02.144Z,52.11
2019-03-30T09:13:27.392Z,52.55
2019-03-30T09:18:52.433Z,53.52
2019-03-30T09:24:18.363Z,52.05
2019-03-30T09:29:42.783Z,51.33
2019-03-30T09:35:08.510Z,50.22
2019-03-30T09:40:33.018Z,50.75
2019-03-30T09:45:58.218Z,52.00
2019-03-30T09:51:23.151Z,48.53
2019-03-30T09:56:47.227Z,49.06
2019-03-30T10:02:11.918Z,49.52
2019-03-30T10:07:36.068Z,48.42
2019-03-30T10:13:00.506Z,48.69
2019-03-30T10:18:25.496Z,49.35
2019-03-30T10:23:49.422Z,46.19
2019-03-30T10:29:14.989Z,44.65
2019-03-30T10:34:39.941Z,41.77
2019-03-30T10:40:06.152Z,43.42
2019-03-30T10:45:31.212Z,42.18
2019-03-30T10:50:55.419Z,43.09
2019-03-30T10:56:19.778Z,43.96
2019-03-30T11:01:43.956Z,41.56
2019-03-30T11:07:08.418Z,44.31
2019-03-30T11:12:32.788Z,40.60
2019-03-30T11:17:57.763Z,39.79
2019-03-30T11:23:22.094Z,38.99
2019-03-30T11:28:46.704Z,39.98
2019-03-30T11:34:11.377Z,39.22
2019-03-30T11:39:35.573Z,38.11
2019-03-30T11:44:59.898Z,39.42
2019-03-30T11:50:25.001Z,36.55
2019-03-30T11:55:49.415Z,38.22
2019-03-30T12:01:14.426Z,39.93
2019-03-30T12:06:40.566Z,40.08
2019-03-30T12:12:05.495Z,39.18
2019-03-30T12:17:30.744Z,36.42
2019-03-30T12:22:55.905Z,36.67
2019-03-30T12:28:21.881Z,38.75
2019-03-30T12:33:47.129Z,37.22
2019-03-30T12:39:12.455Z,39.97
2019-03-30T12:44:37.553Z,37.28
2019-03-30T12:50:02.092Z,35.91
2019-03-30T12:55:27.091Z,37.37
2019-03-30T13:00:51.370Z,35.56
2019-03-30T13:06:16.361Z,36.57
2019-03-30T13:11:40.785Z,38.41
2019-03-30T13:17:06.065Z,35.55
2019-03-30T13:22:30.946Z,34.51
2019-03-30T13:27:56.298Z,35.61
2019-03-30T13:33:21.222Z,35.92
2019-03-30T13:38:45.417Z,36.11
2019-03-30T13:44:11.381Z,34.50
2019-03-30T13:49:36.640Z,34.95
2019-03-30T13:55:01.293Z,34.31
2019-03-30T14:00:26.586Z,33.36
2019-03-30T14:05:50.683Z,34.65
2019-03-30T14:11:15.987Z,34.67
2019-03-30T14:16:40.372Z,34.52
2019-03-30T14:22:04.917Z,35.70
2019-03-30T14:27:29.113Z,34.67
2019-03-30T14:32:54.229Z,35.35
2019-03-30T14:38:19.060Z,36.37
2019-03-30T14:43:44.149Z,35.48
2019-03-30T14:49:09.376Z,33.55
2019-03-30T14:54:34.592Z,33.67
2019-03-30T14:59:59.359Z,33.77
2019-03-30T15:05:23.819Z,34.17
2019-03-30T15:10:48.171Z,35.71
2019-03-30T15:16:13.117Z,35.91
2019-03-30T15:21:38.345Z,37.13
2019-03-30T15:27:03.579Z,36.91
2019-03-30T15:32:28.306Z,37.95
2019-03-30T15:37:53.431Z,37.63
2019-03-30T15:43:17.730Z,38.27
2019-03-30T15:48:42.199Z,38.57
2019-03-30T15:54:07.039Z,37.13
2019-03-30T15:59:31.318Z,35.97
2019-03-30T16:04:56.598Z,35.97
2019-03-30T16:10:21.058Z,37.44
2019-03-30T16:15:46.152Z,38.63
2019-03-30T16:21:11.460Z,38.55
2019-03-30T16:26:42.199Z,39.67
2019-03-30T16:32:01.651Z,40.72
2019-03-30T16:37:26.648Z,40.77
2019-03-30T16:42:50.926Z,40.38
2019-03-30T16:48:16.197Z,40.93
2019-03-30T16:53:41.310Z,41.85
2019-03-30T16:59:05.633Z,43.16
2019-03-30T17:04:30.343Z,43.70
2019-03-30T17:09:55.220Z,42.98
2019-03-30T17:15:20.647Z,43.71
2019-03-30T17:20:45.549Z,44.48
2019-03-30T17:26:10.856Z,45.28
2019-03-30T17:31:36.005Z,46.55
2019-03-30T17:37:00.974Z,47.07
2019-03-30T17:42:27.029Z,49.07
2019-03-30T17:47:51.926Z,49.57
2019-03-30T17:53:16.927Z,50.54
2019-03-30T17:58:42.158Z,49.69
2019-03-30T18:04:07.283Z,50.77
2019-03-30T18:09:31.912Z,52.54
2019-03-30T18:14:56.004Z,53.29
2019-03-30T18:20:20.908Z,54.43
2019-03-30T18:25:45.866Z,54.53
2019-03-30T18:31:10.594Z,55.53
2019-03-30T18:36:36.938Z,54.81
2019-03-30T18:42:01.391Z,54.34
2019-03-30T18:47:26.042Z,54.27
2019-03-30T18:52:51.170Z,54.60
2019-03-30T18:58:16.025Z,53.77
2019-03-30T19:03:41.510Z,53.62
2019-03-30T19:09:07.801Z,53.75
2019-03-30T19:14:32.279Z,54.52
2019-03-30T19:19:56.442Z,56.03
2019-03-30T19:25:20.825Z,56.83
2019-03-30T19:30:45.074Z,57.45
2019-03-30T19:36:10.189Z,57.94
2019-03-30T19:41:34.156Z,58.38
2019-03-30T19:46:59.164Z,58.97
2019-03-30T19:52:38.987Z,60.06
2019-03-30T19:57:51.061Z,60.21
2019-03-30T20:03:16.431Z,60.69
2019-03-30T20:08:40.829Z,63.13
2019-03-30T20:14:05.134Z,63.28
2019-03-30T20:19:30.162Z,62.90
2019-03-30T20:24:54.955Z,64.84
2019-03-30T20:30:20.471Z,67.11
2019-03-30T20:35:45.723Z,67.27
2019-03-30T20:41:10.351Z,65.25
2019-03-30T20:46:34.973Z,64.26
2019-03-30T20:51:59.323Z,63.34
2019-03-30T20:57:23.761Z,62.77
2019-03-30T21:02:48.164Z,63.93
2019-03-30T21:08:12.630Z,65.48
2019-03-30T21:13:37.954Z,66.91
2019-03-30T21:19:02.443Z,67.98
2019-03-30T21:24:26.705Z,69.49
2019-03-30T21:29:54.976Z,71.01
2019-03-30T21:35:17.729Z,72.01
2019-03-30T21:40:43.155Z,72.40
2019-03-30T21:46:07.558Z,72.79
2019-03-30T21:51:32.357Z,72.81
2019-03-30T21:56:57.254Z,73.28
2019-03-30T22:02:21.740Z,73.59
2019-03-30T22:07:47.177Z,73.95
2019-03-30T22:13:12.039Z,74.91
2019-03-30T22:18:37.141Z,75.21
2019-03-30T22:24:01.549Z,75.49
2019-03-30T22:29:26.532Z,75.63
2019-03-30T22:34:51.023Z,74.75
2019-03-30T22:40:16.493Z,75.79
2019-03-30T22:45:41.702Z,75.63
2019-03-30T22:51:06.007Z,74.69
2019-03-30T22:56:31.656Z,75.29
2019-03-30T23:01:58.210Z,75.26
2019-03-30T23:07:23.092Z,75.24
2019-03-30T23:12:48.262Z,74.64
2019-03-30T23:18:12.441Z,75.36
2019-03-30T23:23:36.544Z,77.20
2019-03-30T23:29:01.912Z,77.52
2019-03-30T23:34:26.522Z,77.37
2019-03-30T23:39:51.683Z,76.23
2019-03-30T23:45:15.790Z,76.27
2019-03-30T23:50:41.119Z,76.08
2019-03-30T23:56:20.466Z,75.86
